Time;durP1;ratioP1;P1;durP2;ratioP2;P2;SDS_P1;SDS_P2;PMS_P1;PMS_P2;Temp;Humidity;BMP_temperature;BMP_pressure;BME280_temperature;BME280_humidity;BME280_pressure;Samples;Min_cycle;Max_cycle;Signal;HPM_P1;HPM_P2
2021/01/26 00:02:13;;;;;;;37.78;24.83;;;5.20;94.50;;;;;;5018177;28;20039;-49
2021/01/26 00:04:39;;;;;;;38.33;25.83;;;5.30;94.50;;;;;;5057354;28;20036;-48
2021/01/26 00:07:05;;;;;;;35.10;24.13;;;5.40;94.30;;;;;;5052442;28;20116;-49
2021/01/26 00:09:31;;;;;;;32.53;23.05;;;5.40;94.30;;;;;;5070424;28;20124;-49
2021/01/26 00:11:57;;;;;;;30.90;22.02;;;5.50;94.10;;;;;;5073336;28;20117;-49
2021/01/26 00:14:23;;;;;;;31.63;23.75;;;5.30;94.20;;;;;;5068808;28;20465;-49
2021/01/26 00:16:50;;;;;;;29.63;23.05;;;5.50;94.20;;;;;;5055711;28;20044;-49
2021/01/26 00:19:16;;;;;;;27.95;21.77;;;5.40;94.00;;;;;;5055350;28;20556;-49
2021/01/26 00:21:42;;;;;;;31.50;21.92;;;5.50;94.00;;;;;;5038118;28;20044;-49
2021/01/26 00:24:08;;;;;;;32.00;23.38;;;5.60;93.80;;;;;;5074231;28;20426;-48
2021/01/26 00:26:34;;;;;;;29.48;21.92;;;5.40;93.90;;;;;;5030969;28;20036;-49
2021/01/26 00:29:00;;;;;;;30.50;23.02;;;5.30;93.90;;;;;;5083507;28;20024;-49
2021/01/26 00:31:26;;;;;;;29.88;20.50;;;5.50;94.00;;;;;;5078863;28;20038;-49
2021/01/26 00:33:52;;;;;;;34.80;23.02;;;5.60;93.70;;;;;;5095906;28;20040;-49
2021/01/26 00:36:18;;;;;;;27.33;19.77;;;5.70;93.70;;;;;;5097666;28;20047;-49
2021/01/26 00:38:44;;;;;;;29.77;22.48;;;5.60;93.50;;;;;;5082924;28;20028;-48
2021/01/26 00:41:10;;;;;;;29.33;21.55;;;5.60;93.50;;;;;;5042012;28;20040;-49
2021/01/26 00:43:36;;;;;;;28.15;20.60;;;5.60;93.50;;;;;;5077467;28;20086;-49
2021/01/26 00:46:02;;;;;;;33.15;22.25;;;5.70;93.50;;;;;;5076760;28;20376;-49
2021/01/26 00:48:28;;;;;;;28.88;18.80;;;5.50;93.80;;;;;;5025285;28;20446;-49
2021/01/26 00:50:53;;;;;;;37.85;19.10;;;5.40;94.10;;;;;;5025012;28;20070;-49
2021/01/26 00:53:19;;;;;;;37.47;18.48;;;5.40;94.10;;;;;;5076786;28;20043;-49
2021/01/26 00:55:45;;;;;;;45.28;18.02;;;5.30;94.10;;;;;;5025154;28;20098;-49
2021/01/26 00:58:10;;;;;;;36.75;17.50;;;5.40;94.10;;;;;;5076689;28;21026;-48
2021/01/26 01:00:38;;;;;;;29.17;16.90;;;5.50;94.00;;;;;;5076751;28;20036;-49
2021/01/26 01:03:07;;;;;;;24.02;16.30;;;5.50;93.80;;;;;;5077003;28;20376;-49
2021/01/26 01:05:33;;;;;;;24.00;16.38;;;5.50;93.90;;;;;;5034583;28;20041;-49
2021/01/26 01:07:59;;;;;;;22.63;16.10;;;5.50;94.20;;;;;;5034613;28;20528;-49
2021/01/26 01:10:29;;;;;;;20.23;15.70;;;5.50;93.90;;;;;;5042389;28;20036;-49
2021/01/26 01:12:55;;;;;;;22.70;16.98;;;5.50;93.90;;;;;;5051027;28;20115;-49
2021/01/26 01:15:21;;;;;;;23.88;16.95;;;5.40;93.90;;;;;;5034835;28;20042;-49
2021/01/26 01:17:47;;;;;;;22.58;15.77;;;5.50;94.10;;;;;;5034541;28;20577;-49
2021/01/26 01:20:16;;;;;;;21.63;15.70;;;5.50;94.00;;;;;;5051472;28;20508;-48
2021/01/26 01:22:42;;;;;;;23.52;16.52;;;5.30;94.40;;;;;;5054372;28;20162;-48
2021/01/26 01:25:08;;;;;;;21.40;15.60;;;5.30;94.60;;;;;;5053964;28;20037;-49
2021/01/26 01:27:34;;;;;;;20.42;14.75;;;5.10;94.80;;;;;;5020472;28;20037;-49
2021/01/26 01:30:00;;;;;;;19.17;14.43;;;5.10;94.90;;;;;;5054203;28;20021;-49
2021/01/26 01:32:25;;;;;;;20.92;14.68;;;5.10;94.90;;;;;;5037497;28;20123;-48
2021/01/26 01:34:51;;;;;;;19.15;14.25;;;5.00;95.10;;;;;;5053960;28;20049;-51
2021/01/26 01:37:17;;;;;;;22.52;15.60;;;4.90;95.50;;;;;;5069565;28;20032;-48
2021/01/26 01:39:43;;;;;;;23.58;16.52;;;4.90;95.70;;;;;;5096846;28;20026;-49
2021/01/26 01:42:10;;;;;;;23.75;15.70;;;4.90;95.50;;;;;;5096498;28;20624;-48
2021/01/26 01:44:36;;;;;;;24.63;16.20;;;5.10;95.20;;;;;;5044355;28;20032;-49
2021/01/26 01:47:04;;;;;;;23.95;16.10;;;5.20;95.00;;;;;;5078211;28;20032;-49
2021/01/26 01:49:41;;;;;;;23.70;15.82;;;5.20;94.80;;;;;;5096057;28;20020;-48
2021/01/26 01:52:12;;;;;;;22.27;14.70;;;5.20;94.90;;;;;;5095780;28;20055;-48
2021/01/26 01:54:45;;;;;;;19.73;14.15;;;5.30;95.30;;;;;;5096569;28;20408;-48
2021/01/26 01:57:14;;;;;;;21.05;13.75;;;5.30;94.70;;;;;;5096277;28;20411;-48
2021/01/26 01:59:44;;;;;;;19.40;13.50;;;5.30;94.70;;;;;;5096251;28;20352;-49
2021/01/26 02:02:13;;;;;;;21.95;13.85;;;5.30;94.70;;;;;;5096392;28;20031;-49
2021/01/26 02:04:41;;;;;;;18.70;13.30;;;5.30;94.80;;;;;;5095858;28;20028;-49
2021/01/26 02:07:07;;;;;;;19.80;13.23;;;5.30;94.70;;;;;;5096173;28;20151;-49
2021/01/26 02:09:36;;;;;;;19.30;12.88;;;5.20;94.90;;;;;;5096131;28;20111;-49
2021/01/26 02:12:03;;;;;;;20.52;13.93;;;5.20;95.20;;;;;;5095514;28;20117;-48
2021/01/26 02:14:36;;;;;;;20.17;14.63;;;5.20;95.30;;;;;;4994552;28;20040;-49
2021/01/26 02:17:31;;;;;;;25.35;15.27;;;5.10;95.50;;;;;;5095819;28;20059;-49
2021/01/26 02:20:35;;;;;;;19.13;13.68;;;5.10;95.70;;;;;;5095510;28;20050;-48
2021/01/26 02:23:49;;;;;;;20.60;13.98;;;4.80;96.30;;;;;;5096155;28;20351;-49
2021/01/26 02:26:33;;;;;;;21.10;14.57;;;4.70;96.70;;;;;;5095902;28;20038;-49
2021/01/26 02:29:09;;;;;;;23.45;15.48;;;4.70;96.70;;;;;;5095537;28;20038;-49
2021/01/26 02:32:09;;;;;;;25.75;15.73;;;4.60;97.10;;;;;;5095012;28;20367;-49
2021/01/26 02:35:07;;;;;;;29.55;14.95;;;4.40;97.40;;;;;;5094311;28;20040;-50
2021/01/26 02:38:13;;;;;;;32.80;16.10;;;4.40;97.60;;;;;;5095294;28;20028;-49
2021/01/26 02:40:59;;;;;;;27.35;15.98;;;4.50;97.70;;;;;;5095033;28;20024;-48
2021/01/26 02:44:00;;;;;;;28.13;15.48;;;4.50;97.50;;;;;;4993304;28;20589;-49
2021/01/26 02:46:28;;;;;;;25.10;15.75;;;4.60;97.50;;;;;;4916823;29;20123;-49
2021/01/26 02:49:05;;;;;;;27.83;17.08;;;4.60;97.50;;;;;;4916275;29;20036;-51
2021/01/26 02:51:50;;;;;;;31.05;18.77;;;4.50;97.80;;;;;;4916363;29;20044;-49
2021/01/26 02:54:38;;;;;;;24.88;16.63;;;4.40;98.10;;;;;;4916655;29;20044;-48
2021/01/26 02:57:11;;;;;;;25.88;14.77;;;4.30;98.20;;;;;;4916234;29;20032;-49
2021/01/26 02:59:59;;;;;;;32.08;18.20;;;4.20;98.50;;;;;;4916452;29;20087;-49
2021/01/26 03:02:33;;;;;;;23.85;12.75;;;4.10;99.10;;;;;;4916342;29;20496;-49
2021/01/26 03:05:02;;;;;;;30.08;18.73;;;4.00;99.20;;;;;;4915882;29;20095;-48
2021/01/26 03:07:33;;;;;;;30.55;18.35;;;3.90;99.60;;;;;;4916257;29;20452;-48
2021/01/26 03:10:04;;;;;;;31.05;19.58;;;3.90;99.60;;;;;;4916216;29;20062;-48
2021/01/26 03:12:42;;;;;;;28.77;17.20;;;3.90;99.70;;;;;;4915713;29;20504;-49
2021/01/26 03:15:20;;;;;;;28.48;17.50;;;3.90;99.50;;;;;;4915906;29;20543;-49
2021/01/26 03:17:51;;;;;;;29.20;18.33;;;3.70;99.80;;;;;;4915933;29;20036;-48
2021/01/26 03:20:47;;;;;;;31.75;19.27;;;3.80;99.90;;;;;;4946520;28;20042;-48
2021/01/26 03:23:21;;;;;;;33.30;19.65;;;3.80;99.90;;;;;;5029252;28;20036;-49
2021/01/26 03:25:51;;;;;;;28.00;17.88;;;3.70;99.80;;;;;;5092212;28;20032;-48
2021/01/26 03:28:21;;;;;;;26.85;18.77;;;3.70;99.90;;;;;;5091770;28;20442;-48
2021/01/26 03:30:50;;;;;;;28.95;17.95;;;3.80;99.90;;;;;;5051659;28;20173;-48
2021/01/26 03:33:24;;;;;;;32.20;20.05;;;3.70;99.90;;;;;;5051499;28;20140;-49
2021/01/26 03:35:50;;;;;;;32.85;19.80;;;3.70;99.90;;;;;;5018402;28;20127;-49
2021/01/26 03:38:22;;;;;;;26.52;17.83;;;3.70;99.90;;;;;;5051294;28;20515;-48
2021/01/26 03:40:52;;;;;;;27.67;18.35;;;3.50;99.90;;;;;;5051615;28;20516;-49
2021/01/26 03:43:19;;;;;;;31.63;18.67;;;3.60;99.90;;;;;;5051367;28;20560;-48
2021/01/26 03:45:47;;;;;;;30.92;19.55;;;3.50;99.90;;;;;;5050667;28;20072;-48
2021/01/26 03:48:16;;;;;;;26.85;18.20;;;3.70;99.90;;;;;;5051065;28;20117;-49
2021/01/26 03:51:10;;;;;;;30.60;19.95;;;3.70;99.90;;;;;;5051437;28;20040;-49
2021/01/26 03:54:17;;;;;;;34.95;19.58;;;3.70;99.90;;;;;;5047332;28;20051;-49
2021/01/26 03:57:07;;;;;;;30.40;17.77;;;3.70;99.90;;;;;;5017876;28;20247;-49
2021/01/26 03:59:51;;;;;;;30.00;18.15;;;3.70;99.90;;;;;;5051089;28;20052;-48
2021/01/26 04:02:32;;;;;;;27.48;18.15;;;3.70;99.90;;;;;;5081604;28;20040;-49
2021/01/26 04:05:31;;;;;;;27.83;17.80;;;3.90;99.80;;;;;;5093796;28;20048;-48
2021/01/26 04:08:18;;;;;;;29.67;16.70;;;3.70;99.90;;;;;;4991389;28;20117;-49
2021/01/26 04:11:08;;;;;;;26.50;16.90;;;3.80;99.70;;;;;;4933439;29;20480;-48
2021/01/26 04:13:44;;;;;;;25.85;16.52;;;3.80;99.70;;;;;;4933817;29;20043;-48
2021/01/26 04:16:13;;;;;;;23.52;14.43;;;3.80;99.80;;;;;;4934074;29;20108;-48
2021/01/26 04:18:42;;;;;;;24.88;16.23;;;3.90;99.50;;;;;;4933923;29;20079;-48
2021/01/26 04:21:10;;;;;;;24.33;16.00;;;3.90;99.50;;;;;;4933992;29;20063;-48
2021/01/26 04:23:39;;;;;;;25.20;16.70;;;3.80;99.70;;;;;;4933713;29;20034;-49
2021/01/26 04:26:11;;;;;;;22.27;15.45;;;3.80;99.50;;;;;;4933874;29;20066;-48
2021/01/26 04:28:42;;;;;;;25.75;16.73;;;3.80;99.50;;;;;;4933747;29;20092;-48
2021/01/26 04:31:10;;;;;;;21.27;14.23;;;3.80;99.30;;;;;;4934004;29;20071;-48
2021/01/26 04:33:36;;;;;;;22.70;14.60;;;3.80;99.40;;;;;;4933612;29;20448;-48
2021/01/26 04:36:03;;;;;;;18.95;13.20;;;3.70;99.70;;;;;;4933751;29;20558;-48
2021/01/26 04:38:29;;;;;;;19.50;13.70;;;3.70;99.50;;;;;;4914402;29;20097;-48
2021/01/26 04:41:00;;;;;;;20.65;15.38;;;3.70;99.50;;;;;;4908038;28;20038;-48
2021/01/26 04:43:28;;;;;;;21.85;15.10;;;3.70;99.90;;;;;;4972727;28;20031;-48
2021/01/26 04:46:05;;;;;;;23.67;15.63;;;3.60;99.90;;;;;;5033966;28;20061;-48
2021/01/26 04:48:49;;;;;;;20.40;13.55;;;3.60;99.90;;;;;;5050399;28;20124;-49
2021/01/26 04:51:38;;;;;;;21.73;15.82;;;3.70;99.70;;;;;;5050669;28;20451;-48
2021/01/26 04:54:15;;;;;;;26.20;16.98;;;3.60;99.90;;;;;;4991195;28;20073;-49
2021/01/26 04:57:05;;;;;;;21.20;15.43;;;3.60;99.90;;;;;;4991284;28;20120;-48
2021/01/26 04:59:34;;;;;;;21.23;15.32;;;3.70;99.90;;;;;;4994892;28;20468;-48
2021/01/26 05:02:28;;;;;;;32.13;21.67;;;3.60;99.80;;;;;;4994390;28;20184;-50
2021/01/26 05:05:11;;;;;;;26.02;17.73;;;3.70;99.80;;;;;;4934325;29;20511;-48
2021/01/26 05:07:41;;;;;;;;;;;3.70;99.80;;;;;;4920700;29;20157;-48
2021/01/26 05:10:36;;;;;;;25.17;19.10;;;3.50;99.90;;;;;;4946921;28;20507;-48
2021/01/26 05:13:20;;;;;;;23.13;16.40;;;3.60;99.90;;;;;;4936986;29;20071;-48
2021/01/26 05:15:50;;;;;;;17.45;12.63;;;3.60;99.90;;;;;;4942445;28;20027;-48
2021/01/26 05:18:22;;;;;;;21.98;15.18;;;3.40;99.90;;;;;;4956543;28;20095;-49
2021/01/26 05:20:52;;;;;;;;;;;3.40;99.90;;;;;;4969050;28;20034;-49
2021/01/26 05:23:22;;;;;;;21.13;14.75;;;3.50;99.90;;;;;;4975306;28;19906;-48
2021/01/26 05:25:50;;;;;;;23.75;16.63;;;3.50;99.90;;;;;;4956496;28;20039;-49
2021/01/26 05:28:18;;;;;;;22.90;17.58;;;3.50;99.90;;;;;;4970162;28;20039;-49
2021/01/26 05:30:53;;;;;;;20.98;15.13;;;3.50;99.90;;;;;;4989045;28;20111;-49
2021/01/26 05:33:20;;;;;;;21.52;13.80;;;3.50;99.80;;;;;;4994195;28;20057;-48
2021/01/26 05:35:56;;;;;;;20.83;14.35;;;3.50;99.70;;;;;;4994302;28;20051;-48
2021/01/26 05:38:22;;;;;;;19.80;14.68;;;3.50;99.60;;;;;;4994369;28;20084;-46
2021/01/26 05:40:53;;;;;;;20.08;14.60;;;3.40;99.80;;;;;;5018438;28;20039;-47
2021/01/26 05:43:22;;;;;;;18.80;12.95;;;3.40;99.60;;;;;;5075966;28;20112;-49
2021/01/26 05:45:53;;;;;;;19.83;14.27;;;3.40;99.60;;;;;;5073043;28;20035;-48
2021/01/26 05:48:24;;;;;;;20.63;14.13;;;3.40;99.80;;;;;;5075367;28;20063;-48
2021/01/26 05:50:51;;;;;;;16.45;13.38;;;3.40;99.80;;;;;;5075599;28;20029;-50
2021/01/26 05:53:30;;;;;;;19.08;14.77;;;3.40;99.80;;;;;;5023529;28;20101;-49
2021/01/26 05:56:12;;;;;;;16.77;13.10;;;3.30;99.70;;;;;;5075701;28;20031;-49
2021/01/26 05:58:40;;;;;;;15.05;10.48;;;3.30;99.90;;;;;;5075417;28;20020;-49
2021/01/26 06:01:09;;;;;;;15.45;11.98;;;3.30;99.90;;;;;;5075500;28;20029;-49
2021/01/26 06:03:35;;;;;;;14.15;9.98;;;3.30;99.80;;;;;;5075456;28;20028;-50
2021/01/26 06:06:07;;;;;;;17.73;12.80;;;3.10;99.90;;;;;;5075642;28;20346;-50
2021/01/26 06:08:51;;;;;;;18.55;12.50;;;3.20;99.90;;;;;;5074722;28;20021;-50
2021/01/26 06:11:21;;;;;;;16.75;12.65;;;3.30;99.80;;;;;;5075237;28;20056;-50
2021/01/26 06:13:47;;;;;;;17.05;13.45;;;3.20;99.90;;;;;;5075047;28;20063;-50
2021/01/26 06:16:22;;;;;;;20.38;13.57;;;3.20;99.90;;;;;;5039581;28;20111;-47
2021/01/26 06:19:00;;;;;;;18.85;14.25;;;3.30;99.90;;;;;;4990606;28;20044;-44
2021/01/26 06:21:28;;;;;;;17.90;13.77;;;3.40;99.60;;;;;;5075070;28;20032;-40
2021/01/26 06:23:57;;;;;;;16.17;10.70;;;3.40;99.60;;;;;;5075025;28;20031;-43
2021/01/26 06:26:29;;;;;;;17.42;12.55;;;3.40;99.30;;;;;;5075852;28;20067;-45
2021/01/26 06:29:06;;;;;;;18.75;13.63;;;3.50;99.20;;;;;;5081835;28;20127;-42
2021/01/26 06:32:11;;;;;;;25.55;19.13;;;3.50;99.30;;;;;;5057925;28;20519;-43
2021/01/26 06:35:02;;;;;;;17.85;12.75;;;3.50;99.30;;;;;;4972754;28;20062;-45
2021/01/26 06:37:50;;;;;;;19.63;13.65;;;3.60;99.20;;;;;;4979823;28;20038;-46
2021/01/26 06:40:47;;;;;;;25.77;18.02;;;3.70;99.40;;;;;;4973597;28;20031;-45
2021/01/26 06:43:45;;;;;;;16.17;12.82;;;4.00;98.50;;;;;;4935221;29;20555;-44
2021/01/26 06:46:25;;;;;;;23.58;15.63;;;4.50;97.30;;;;;;4844507;29;20069;-44
2021/01/26 06:48:58;;;;;;;23.40;18.25;;;4.60;97.00;;;;;;4860136;29;20049;-44
2021/01/26 06:51:27;;;;;;;26.65;18.35;;;4.60;96.80;;;;;;4860267;29;20101;-44
2021/01/26 06:54:20;;;;;;;17.77;13.75;;;4.60;96.60;;;;;;4844781;29;20378;-46
2021/01/26 06:57:10;;;;;;;20.33;13.82;;;4.70;96.60;;;;;;4860095;29;20494;-44
2021/01/26 06:59:55;;;;;;;19.15;14.13;;;4.60;96.60;;;;;;4860068;29;20423;-44
2021/01/26 07:02:44;;;;;;;21.00;14.18;;;4.70;96.30;;;;;;4860212;29;20123;-42
2021/01/26 07:05:22;;;;;;;18.90;13.48;;;4.70;96.50;;;;;;4823467;29;20072;-46
2021/01/26 07:08:08;;;;;;;19.38;14.23;;;4.70;96.20;;;;;;4823633;29;20042;-47
2021/01/26 07:11:16;;;;;;;17.98;13.25;;;4.70;96.20;;;;;;4835656;29;20042;-46
2021/01/26 07:13:58;;;;;;;18.92;13.32;;;4.60;96.30;;;;;;4820894;29;20117;-46
2021/01/26 07:16:41;;;;;;;17.92;13.65;;;4.70;96.20;;;;;;4826183;29;20087;-45
2021/01/26 07:19:13;;;;;;;18.35;13.15;;;4.90;96.30;;;;;;4846575;29;20038;-46
2021/01/26 07:21:42;;;;;;;20.50;15.23;;;4.80;96.00;;;;;;4925214;28;20425;-43
2021/01/26 07:24:16;;;;;;;12.60;9.90;;;4.80;96.30;;;;;;4992918;28;20026;-45
2021/01/26 07:26:48;;;;;;;16.15;13.55;;;4.70;96.00;;;;;;4992470;28;20062;-41
2021/01/26 07:43:10;;;;;;;19.08;14.85;;;4.80;95.80;;;;;;5091877;27;20370;-45
2021/01/26 07:45:56;;;;;;;14.18;10.98;;;6.00;94.10;;;;;;5091753;28;20033;-48
2021/01/26 07:48:46;;;;;;;13.52;9.27;;;6.00;93.00;;;;;;5106012;28;20032;-50
2021/01/26 07:51:28;;;;;;;14.73;11.15;;;6.10;92.80;;;;;;5090836;28;20033;-43
2021/01/26 07:54:05;;;;;;;15.50;12.87;;;6.50;92.20;;;;;;5088127;28;20466;-45
2021/01/26 07:56:37;;;;;;;15.73;12.45;;;6.90;91.20;;;;;;5068036;28;20046;-47
2021/01/26 07:59:15;;;;;;;14.00;10.73;;;7.30;91.50;;;;;;5068484;28;20521;-47
2021/01/26 08:01:48;;;;;;;15.45;11.15;;;6.80;89.50;;;;;;5068159;28;20029;-43
2021/01/26 08:04:16;;;;;;;18.13;12.88;;;7.00;90.10;;;;;;5068245;28;20044;-46
2021/01/26 08:06:46;;;;;;;16.02;12.10;;;6.90;90.00;;;;;;5068181;28;20024;-46
2021/01/26 08:09:17;;;;;;;27.30;18.40;;;6.80;90.10;;;;;;5068396;28;20020;-47
2021/01/26 08:11:59;;;;;;;15.73;12.25;;;6.60;90.80;;;;;;5068315;28;20045;-47
2021/01/26 08:14:33;;;;;;;;;;;7.00;90.20;;;;;;5068779;28;20361;-46
2021/01/26 08:17:01;;;;;;;17.58;12.52;;;7.20;89.20;;;;;;5067956;28;19942;-46
2021/01/26 08:19:32;;;;;;;23.45;16.00;;;7.20;87.80;;;;;;5068145;28;20025;-45
2021/01/26 08:21:59;;;;;;;23.27;16.13;;;6.80;89.60;;;;;;5061214;28;20032;-47
2021/01/26 08:24:34;;;;;;;26.45;17.05;;;6.60;90.20;;;;;;5064824;28;20024;-47
2021/01/26 08:27:24;;;;;;;22.48;16.15;;;6.20;90.80;;;;;;5073283;28;20036;-45
2021/01/26 08:29:50;;;;;;;27.90;18.88;;;5.70;92.20;;;;;;5085312;28;20020;-46
2021/01/26 08:32:39;;;;;;;17.73;13.80;;;;;;;;;;5087077;28;20036;-46
2021/01/26 08:35:23;;;;;;;24.60;16.30;;;5.20;99.90;;;;;;5045204;28;20041;-46
2021/01/26 08:37:52;;;;;;;20.52;14.45;;;5.20;95.60;;;;;;5047358;28;20501;-46
2021/01/26 08:40:21;;;;;;;17.35;11.90;;;4.90;93.90;;;;;;5046826;28;20087;-46
2021/01/26 08:42:49;;;;;;;18.42;14.57;;;4.50;94.70;;;;;;5038961;28;20500;-46
2021/01/26 08:45:15;;;;;;;18.10;14.15;;;4.50;94.50;;;;;;5033650;28;20531;-47
2021/01/26 08:47:41;;;;;;;21.27;15.15;;;4.60;94.70;;;;;;4993661;28;20026;-46
2021/01/26 08:50:20;;;;;;;19.20;13.70;;;4.70;95.10;;;;;;4994194;28;20037;-46
2021/01/26 08:52:46;;;;;;;19.50;15.27;;;4.50;94.90;;;;;;4991751;28;20080;-47
2021/01/26 08:55:52;;;;;;;20.88;16.80;;;4.80;95.30;;;;;;4994802;28;20058;-45
2021/01/26 08:58:38;;;;;;;21.65;14.38;;;4.70;95.00;;;;;;4956579;29;20043;-47
2021/01/26 09:01:06;;;;;;;59.60;26.70;;;4.90;94.90;;;;;;4879990;29;20045;-47
2021/01/26 09:03:41;;;;;;;35.33;18.83;;;4.70;94.90;;;;;;4880098;29;20401;-46
2021/01/26 09:06:12;;;;;;;30.08;16.90;;;4.60;94.90;;;;;;4879921;29;20045;-47
2021/01/26 09:08:40;;;;;;;26.45;17.08;;;4.70;95.60;;;;;;4880216;29;20037;-47
2021/01/26 09:11:24;;;;;;;17.00;13.10;;;4.80;94.60;;;;;;4884125;29;20029;-47
2021/01/26 09:13:51;;;;;;;70.88;37.30;;;4.70;94.60;;;;;;4917697;29;20366;-46
2021/01/26 09:16:17;;;;;;;18.40;13.20;;;4.80;94.20;;;;;;4917246;29;20488;-45
2021/01/26 09:18:44;;;;;;;21.95;16.58;;;5.00;93.40;;;;;;4937144;29;20546;-46
2021/01/26 09:21:15;;;;;;;32.83;20.58;;;5.20;94.60;;;;;;4955555;29;20052;-44
2021/01/26 09:23:41;;;;;;;20.27;14.60;;;5.10;94.10;;;;;;4956149;29;20028;-45
2021/01/26 09:26:12;;;;;;;17.67;13.57;;;5.30;93.50;;;;;;4955407;29;20039;-46
2021/01/26 09:28:40;;;;;;;20.00;14.20;;;5.30;92.50;;;;;;4968632;28;20505;-46
2021/01/26 09:31:07;;;;;;;19.38;15.05;;;5.20;93.10;;;;;;4993993;28;20046;-44
2021/01/26 09:33:33;;;;;;;17.92;13.23;;;5.20;91.90;;;;;;4994224;28;20058;-44
2021/01/26 09:36:01;;;;;;;16.40;12.43;;;5.10;92.00;;;;;;4994031;28;20445;-45
2021/01/26 09:38:28;;;;;;;18.23;13.82;;;5.20;92.30;;;;;;5044981;28;20112;-45
2021/01/26 09:41:07;;;;;;;16.80;14.07;;;5.40;93.00;;;;;;5075516;28;20048;-45
2021/01/26 09:43:38;;;;;;;17.55;13.02;;;5.50;91.90;;;;;;5075260;28;20464;-46
2021/01/26 09:46:11;;;;;;;15.43;12.27;;;5.40;91.20;;;;;;5039438;28;20032;-46
2021/01/26 09:48:45;;;;;;;23.20;17.05;;;5.00;92.20;;;;;;5073324;28;20029;-45
2021/01/26 09:51:17;;;;;;;17.52;13.38;;;5.50;92.90;;;;;;5073042;28;20090;-46
2021/01/26 09:53:45;;;;;;;22.77;15.90;;;5.70;91.20;;;;;;5072172;28;20055;-46
2021/01/26 09:56:16;;;;;;;24.20;18.25;;;5.70;91.80;;;;;;5072819;28;20078;-46
2021/01/26 09:58:44;;;;;;;13.55;8.57;;;6.00;91.90;;;;;;5072871;28;20523;-46
2021/01/26 10:01:12;;;;;;;18.52;14.45;;;5.70;88.80;;;;;;5073075;28;20040;-45
2021/01/26 10:03:39;;;;;;;14.07;9.68;;;;;;;;;;5072787;28;20025;-46
2021/01/26 10:06:05;;;;;;;15.90;13.30;;;6.70;99.90;;;;;;5072704;28;20114;-45
2021/01/26 10:08:32;;;;;;;16.63;12.65;;;;;;;;;;5073317;28;20103;-45
2021/01/26 10:11:09;;;;;;;12.77;9.80;;;7.30;84.10;;;;;;5072320;28;20048;-46
2021/01/26 10:13:36;;;;;;;13.38;11.90;;;7.10;84.30;;;;;;5072589;28;20029;-45
2021/01/26 10:16:30;;;;;;;36.25;23.75;;;7.10;84.70;;;;;;5022764;28;20029;-45
2021/01/26 10:18:57;;;;;;;37.60;23.67;;;;;;;;;;5074359;28;20541;-45
2021/01/26 10:21:31;;;;;;;15.18;13.25;;;7.40;81.60;;;;;;5074342;28;20028;-46
2021/01/26 10:24:21;;;;;;;27.52;17.63;;;7.60;78.30;;;;;;5074370;28;20025;-46
2021/01/26 10:26:47;;;;;;;15.90;11.48;;;7.30;83.00;;;;;;5074343;28;20476;-45
2021/01/26 10:29:22;;;;;;;15.15;11.15;;;7.30;81.50;;;;;;5074614;28;20016;-46
2021/01/26 10:31:55;;;;;;;15.50;13.13;;;7.20;83.60;;;;;;5089466;28;20028;-46
2021/01/26 10:34:40;;;;;;;15.05;10.65;;;7.40;81.60;;;;;;5074514;28;20033;-46
2021/01/26 10:37:12;;;;;;;14.48;11.70;;;7.30;80.60;;;;;;5074310;28;20020;-46
2021/01/26 10:39:39;;;;;;;15.25;11.27;;;7.20;83.20;;;;;;5089384;28;20032;-46
2021/01/26 10:42:13;;;;;;;8.90;5.85;;;7.30;82.60;;;;;;5073896;28;20032;-46
2021/01/26 10:44:56;;;;;;;14.57;9.40;;;6.70;81.00;;;;;;5073874;28;20115;-42
2021/01/26 10:47:32;;;;;;;;;;;6.60;80.60;;;;;;5074478;28;20027;-41
2021/01/26 10:50:01;;;;;;;11.90;8.25;;;6.60;82.30;;;;;;5073984;28;19916;-42
2021/01/26 10:52:56;;;;;;;11.38;7.00;;;6.60;81.20;;;;;;5073898;28;20056;-46
2021/01/26 10:55:23;;;;;;;10.02;7.03;;;6.40;81.60;;;;;;5051669;28;20041;-42
2021/01/26 10:57:50;;;;;;;13.60;12.18;;;6.20;82.00;;;;;;5051780;28;20085;-46
2021/01/26 11:00:19;;;;;;;21.65;19.77;;;6.70;82.80;;;;;;5051656;28;20132;-45
2021/01/26 11:02:44;;;;;;;18.15;12.85;;;7.00;81.80;;;;;;5051600;28;20033;-47
2021/01/26 11:05:12;;;;;;;16.63;9.68;;;7.20;83.20;;;;;;5051463;28;20033;-45
2021/01/26 11:07:38;;;;;;;12.23;9.35;;;6.90;80.50;;;;;;4962878;28;20033;-43
2021/01/26 11:10:07;;;;;;;15.35;11.65;;;6.40;81.10;;;;;;5012013;28;20046;-45
2021/01/26 11:12:34;;;;;;;15.52;10.57;;;6.30;80.00;;;;;;4980030;28;20418;-44
2021/01/26 11:15:01;;;;;;;23.40;15.98;;;6.20;82.10;;;;;;5009878;28;20030;-47
2021/01/26 11:17:26;;;;;;;24.42;16.92;;;6.10;81.40;;;;;;5011623;28;20069;-47
2021/01/26 11:19:52;;;;;;;13.35;9.15;;;6.30;83.70;;;;;;5011653;28;20150;-47
2021/01/26 11:22:18;;;;;;;20.25;12.95;;;6.10;82.80;;;;;;5011981;28;20445;-48
2021/01/26 11:24:45;;;;;;;18.90;13.23;;;6.00;84.80;;;;;;5011996;28;20034;-48
2021/01/26 11:27:11;;;;;;;16.75;11.73;;;5.90;84.70;;;;;;4995218;28;20037;-49
2021/01/26 11:29:37;;;;;;;29.27;14.52;;;6.10;83.30;;;;;;5011813;28;20045;-48
2021/01/26 11:32:04;;;;;;;25.10;14.32;;;6.10;85.30;;;;;;5004525;28;20046;-49
2021/01/26 11:34:30;;;;;;;18.30;13.35;;;6.00;83.20;;;;;;4995332;28;20549;-50
2021/01/26 11:36:56;;;;;;;38.28;21.10;;;5.90;85.20;;;;;;5012035;28;20042;-50
2021/01/26 11:39:22;;;;;;;28.10;17.38;;;5.90;87.40;;;;;;5028031;28;20431;-48
2021/01/26 11:41:48;;;;;;;32.70;19.50;;;5.70;81.40;;;;;;5031143;28;20045;-49
2021/01/26 11:44:14;;;;;;;25.92;15.25;;;5.60;81.10;;;;;;5031493;28;20140;-47
2021/01/26 11:46:39;;;;;;;70.18;34.65;;;5.50;79.60;;;;;;5031386;28;20040;-48
2021/01/26 11:49:05;;;;;;;28.92;16.75;;;5.60;83.30;;;;;;5031208;28;20428;-48
2021/01/26 11:51:31;;;;;;;24.65;12.23;;;5.60;82.20;;;;;;5031302;28;20038;-46
2021/01/26 11:53:58;;;;;;;29.40;17.80;;;5.50;83.90;;;;;;5031276;28;20072;-47
2021/01/26 11:56:24;;;;;;;24.63;12.77;;;5.50;84.40;;;;;;5031201;28;20033;-47
2021/01/26 11:58:51;;;;;;;20.40;13.82;;;5.40;80.10;;;;;;5031789;28;20048;-47
2021/01/26 12:01:17;;;;;;;21.85;13.70;;;5.40;85.00;;;;;;5031119;28;20025;-47
2021/01/26 12:03:44;;;;;;;19.65;12.60;;;5.60;85.80;;;;;;5048573;28;20068;-47
2021/01/26 12:06:11;;;;;;;18.88;13.02;;;5.50;86.00;;;;;;5053151;28;20029;-48
2021/01/26 12:08:38;;;;;;;113.28;58.15;;;5.60;85.40;;;;;;5053143;28;20116;-50
2021/01/26 12:11:04;;;;;;;19.38;12.93;;;5.60;87.30;;;;;;5053333;28;20446;-46
2021/01/26 12:13:31;;;;;;;51.67;29.25;;;5.60;85.70;;;;;;5053323;28;20037;-50
2021/01/26 12:15:57;;;;;;;26.52;17.75;;;5.60;87.20;;;;;;5053253;28;20095;-48
2021/01/26 12:18:23;;;;;;;12.23;8.20;;;5.70;84.90;;;;;;5055748;28;20133;-47
2021/01/26 12:20:49;;;;;;;9.77;7.03;;;5.40;80.20;;;;;;5057177;28;20464;-50
2021/01/26 12:23:15;;;;;;;10.55;7.50;;;5.30;80.00;;;;;;5056891;28;20028;-49
2021/01/26 12:25:41;;;;;;;15.25;9.27;;;5.30;82.30;;;;;;5056936;28;20025;-46
2021/01/26 12:28:08;;;;;;;16.58;7.15;;;5.50;82.60;;;;;;5088537;28;20399;-50
2021/01/26 12:30:34;;;;;;;11.05;5.68;;;5.20;81.90;;;;;;5068362;28;20028;-45
2021/01/26 12:33:00;;;;;;;10.40;6.88;;;5.20;79.40;;;;;;5070309;28;20036;-47
2021/01/26 12:35:28;;;;;;;9.90;6.18;;;;;;;;;;5072804;28;20087;-48
2021/01/26 12:37:54;;;;;;;10.00;8.15;;;5.00;83.10;;;;;;5070988;28;20032;-45
2021/01/26 12:40:20;;;;;;;14.80;9.60;;;4.90;85.40;;;;;;5076739;28;20094;-50
2021/01/26 12:42:47;;;;;;;11.00;7.72;;;5.00;86.90;;;;;;5076185;28;20093;-47
2021/01/26 12:45:15;;;;;;;13.75;9.60;;;4.90;87.40;;;;;;5076328;28;20083;-48
2021/01/26 12:47:41;;;;;;;17.77;11.15;;;4.70;89.40;;;;;;5076320;28;20508;-47
2021/01/26 12:50:09;;;;;;;20.10;13.55;;;4.70;89.70;;;;;;5057899;28;20555;-46
2021/01/26 12:52:36;;;;;;;18.67;12.32;;;4.80;90.30;;;;;;5074936;28;20051;-50
2021/01/26 12:55:02;;;;;;;13.95;8.05;;;4.80;90.20;;;;;;5076105;28;20463;-49
2021/01/26 12:57:27;;;;;;;11.35;6.43;;;4.70;90.30;;;;;;5076121;28;20052;-49
2021/01/26 12:59:53;;;;;;;8.20;4.95;;;4.30;89.90;;;;;;5075967;28;20062;-49
2021/01/26 13:02:22;;;;;;;6.20;3.97;;;4.10;89.70;;;;;;5076132;28;20040;-45
2021/01/26 13:04:48;;;;;;;8.55;6.13;;;3.80;91.30;;;;;;5076058;28;20032;-45
2021/01/26 13:07:14;;;;;;;15.30;9.43;;;3.70;92.20;;;;;;5076198;28;20028;-46
2021/01/26 13:09:40;;;;;;;19.05;12.43;;;3.60;92.20;;;;;;5076267;28;20464;-47
2021/01/26 13:12:06;;;;;;;18.58;12.65;;;3.80;92.00;;;;;;5074669;28;20037;-46
2021/01/26 13:14:32;;;;;;;18.08;10.82;;;3.90;91.90;;;;;;5075623;28;20497;-48
2021/01/26 13:16:58;;;;;;;24.67;13.52;;;3.90;91.40;;;;;;5076086;28;20111;-46
2021/01/26 13:19:23;;;;;;;17.65;10.95;;;4.10;91.30;;;;;;5075995;28;20033;-45
2021/01/26 13:21:51;;;;;;;17.98;11.88;;;4.20;91.20;;;;;;5075905;28;20529;-46
2021/01/26 13:24:18;;;;;;;11.02;8.20;;;4.30;91.00;;;;;;5073451;28;20491;-49